createdAt,value
2022-10-04T00:00:29.917Z,2.20
2022-10-04T00:03:12.442Z,2.55
2022-10-04T00:05:40.495Z,2.42
2022-10-04T00:08:22.052Z,2.83
2022-10-04T00:10:48.617Z,2.85
2022-10-04T00:13:17.928Z,2.42
2022-10-04T00:15:49.110Z,2.40
2022-10-04T00:18:37.188Z,2.25
2022-10-04T00:21:04.229Z,2.47
2022-10-04T00:23:36.451Z,2.20
2022-10-04T00:26:10.238Z,2.40
2022-10-04T00:28:36.512Z,2.20
2022-10-04T00:31:02.875Z,2.22
2022-10-04T00:33:39.491Z,2.55
2022-10-04T00:36:23.960Z,2.60
2022-10-04T00:39:19.508Z,2.45
2022-10-04T00:41:57.090Z,1.60
2022-10-04T00:44:43.644Z,2.55
2022-10-04T00:47:23.916Z,3.15
2022-10-04T00:49:52.370Z,2.78
2022-10-04T00:52:21.865Z,2.10
2022-10-04T00:54:53.273Z,2.47
2022-10-04T00:57:31.612Z,4.10
2022-10-04T01:00:04.012Z,2.78
2022-10-04T01:02:45.397Z,1.95
2022-10-04T01:05:19.721Z,2.60
2022-10-04T01:07:52.966Z,3.05
2022-10-04T01:10:19.217Z,1.90
2022-10-04T01:13:14.696Z,3.42
2022-10-04T01:15:45.245Z,2.53
2022-10-04T01:18:20.429Z,2.40
2022-10-04T01:20:46.693Z,2.38
2022-10-04T01:23:30.311Z,2.90
2022-10-04T01:25:56.595Z,2.95
2022-10-04T01:28:23.046Z,2.28
2022-10-04T01:30:49.373Z,2.42
2022-10-04T01:33:15.758Z,2.45
2022-10-04T01:35:42.213Z,2.47
2022-10-04T01:38:08.659Z,2.70
2022-10-04T01:40:36.344Z,2.78
2022-10-04T01:43:06.890Z,2.70
2022-10-04T01:45:37.785Z,2.30
2022-10-04T01:48:05.941Z,2.30
2022-10-04T01:50:35.154Z,2.97
2022-10-04T01:53:10.904Z,2.25
2022-10-04T02:07:49.655Z,3.90
2022-10-04T02:10:18.156Z,2.80
2022-10-04T02:12:47.212Z,4.10
2022-10-04T02:15:13.843Z,4.03
2022-10-04T02:17:44.091Z,3.50
2022-10-04T02:20:17.100Z,3.75
2022-10-04T02:22:44.639Z,4.10
2022-10-04T02:25:12.718Z,2.85
2022-10-04T02:27:39.017Z,3.20
2022-10-04T02:30:09.984Z,3.67
2022-10-04T02:32:56.642Z,3.03
2022-10-04T02:35:24.037Z,3.50
2022-10-04T02:37:54.072Z,3.33
2022-10-04T02:40:22.998Z,2.55
2022-10-04T02:43:09.143Z,4.07
2022-10-04T02:48:03.971Z,3.85
2022-10-04T02:50:30.317Z,3.95
2022-10-04T02:53:05.196Z,3.13
2022-10-04T02:55:31.796Z,4.00
2022-10-04T02:57:59.346Z,3.22
2022-10-04T03:00:29.762Z,2.47
2022-10-04T03:03:31.528Z,4.03
2022-10-04T03:06:00.857Z,4.22
2022-10-04T03:08:28.910Z,4.28
2022-10-04T03:10:56.826Z,3.85
2022-10-04T03:13:23.532Z,2.60
2022-10-04T03:15:50.315Z,3.78
2022-10-04T03:18:17.532Z,3.10
2022-10-04T03:20:44.426Z,4.15
2022-10-04T03:23:12.363Z,3.38
2022-10-04T03:25:45.513Z,5.43
2022-10-04T03:28:11.885Z,4.93
2022-10-04T03:30:43.677Z,5.18
2022-10-04T03:33:15.594Z,5.53
2022-10-04T03:35:41.908Z,2.88
2022-10-04T03:38:12.417Z,5.30
2022-10-04T03:40:43.943Z,3.63
2022-10-04T03:43:12.466Z,4.97
2022-10-04T03:45:39.341Z,4.82
2022-10-04T03:48:06.720Z,4.43
2022-10-04T03:50:41.153Z,3.30
2022-10-04T03:53:09.813Z,4.75
2022-10-04T03:55:39.369Z,4.35
2022-10-04T03:58:07.140Z,3.65
2022-10-04T04:00:36.799Z,4.38
2022-10-04T04:03:05.152Z,3.38
2022-10-04T04:05:35.354Z,4.75
2022-10-04T04:08:07.940Z,3.50
2022-10-04T04:10:37.252Z,3.78
2022-10-04T04:13:21.844Z,5.05
2022-10-04T04:15:49.120Z,4.88
2022-10-04T04:18:20.136Z,4.38
2022-10-04T04:20:47.831Z,5.03
2022-10-04T04:23:14.135Z,5.28
2022-10-04T04:25:46.014Z,3.67
2022-10-04T04:28:32.789Z,4.43
2022-10-04T04:31:02.499Z,5.65
2022-10-04T04:33:34.385Z,5.90
2022-10-04T04:36:11.013Z,5.72
2022-10-04T04:38:57.320Z,6.07
2022-10-04T04:41:24.731Z,4.82
2022-10-04T04:43:51.054Z,6.13
2022-10-04T04:46:27.467Z,5.20
2022-10-04T04:49:01.116Z,5.57
2022-10-04T04:51:27.604Z,4.90
2022-10-04T04:53:54.822Z,4.60
2022-10-04T04:56:23.375Z,4.85
2022-10-04T04:58:51.236Z,4.90
2022-10-04T05:01:25.826Z,4.72
2022-10-04T05:04:02.242Z,5.25
2022-10-04T05:06:29.228Z,5.10
2022-10-04T05:08:55.610Z,3.15
2022-10-04T05:11:22.757Z,5.35
2022-10-04T05:13:53.596Z,5.20
2022-10-04T05:16:23.038Z,3.13
2022-10-04T05:18:54.560Z,4.22
2022-10-04T05:21:26.524Z,4.05
2022-10-04T05:23:53.363Z,4.03
2022-10-04T05:26:28.830Z,5.55
2022-10-04T05:28:56.371Z,4.85
2022-10-04T05:31:41.811Z,4.70
2022-10-04T05:34:19.583Z,4.22
2022-10-04T05:36:49.778Z,3.63
2022-10-04T05:39:27.908Z,5.57
2022-10-04T05:42:12.662Z,3.67
2022-10-04T05:44:46.716Z,4.80
2022-10-04T05:47:14.301Z,5.60
2022-10-04T05:49:44.042Z,3.03
2022-10-04T05:52:15.175Z,4.75
2022-10-04T05:54:41.523Z,7.32
2022-10-04T05:57:17.560Z,6.15
2022-10-04T05:59:43.851Z,5.60
2022-10-04T06:02:29.660Z,6.03
2022-10-04T06:05:15.692Z,5.18
2022-10-04T06:07:53.883Z,5.18
2022-10-04T06:10:25.935Z,5.20
2022-10-04T06:12:55.272Z,7.38
2022-10-04T06:15:40.038Z,5.20
2022-10-04T06:18:06.512Z,5.47
2022-10-04T06:20:38.757Z,3.58
2022-10-04T06:23:11.981Z,4.05
2022-10-04T06:25:40.409Z,4.53
2022-10-04T06:28:16.296Z,5.13
2022-10-04T06:30:53.461Z,6.20
2022-10-04T06:33:25.597Z,3.95
2022-10-04T06:36:02.161Z,6.25
2022-10-04T06:38:47.513Z,6.38
2022-10-04T06:41:16.828Z,6.57
2022-10-04T06:44:02.988Z,5.57
2022-10-04T06:51:35.439Z,6.25
2022-10-04T06:54:18.093Z,5.95
2022-10-04T06:56:44.798Z,7.32
2022-10-04T06:59:32.104Z,5.80
2022-10-04T07:02:00.285Z,5.95
2022-10-04T07:04:26.656Z,6.68
2022-10-04T07:07:25.003Z,4.85
2022-10-04T07:09:53.156Z,7.53
2022-10-04T07:12:19.809Z,7.95
2022-10-04T07:14:49.065Z,4.28
2022-10-04T07:17:20.902Z,4.38
2022-10-04T07:19:49.188Z,7.57
2022-10-04T07:22:51.525Z,7.03
2022-10-04T07:25:28.890Z,7.03
2022-10-04T07:28:16.270Z,6.93
2022-10-04T07:30:48.608Z,6.82
2022-10-04T07:33:18.088Z,7.65
2022-10-04T07:35:47.079Z,6.22
2022-10-04T07:38:18.014Z,7.05
2022-10-04T07:41:10.745Z,6.10
2022-10-04T07:43:56.174Z,6.80
2022-10-04T07:46:41.170Z,5.40
2022-10-04T07:49:15.115Z,6.47
2022-10-04T07:52:02.565Z,7.38
2022-10-04T07:54:47.578Z,6.57
2022-10-04T07:57:22.033Z,6.35
2022-10-04T07:59:48.438Z,6.18
2022-10-04T08:02:35.062Z,6.85
2022-10-04T08:05:28.371Z,6.53
2022-10-04T08:08:19.193Z,6.30
2022-10-04T08:11:05.292Z,6.32
2022-10-04T08:13:49.865Z,7.00
2022-10-04T08:16:23.693Z,7.40
2022-10-04T08:19:10.111Z,6.97
2022-10-04T08:21:51.389Z,6.93
2022-10-04T08:24:27.170Z,6.85
2022-10-04T08:32:07.727Z,4.88
2022-10-04T08:34:53.221Z,6.57
2022-10-04T08:37:38.041Z,7.05
2022-10-04T08:40:24.041Z,7.22
2022-10-04T08:43:01.998Z,5.40
2022-10-04T08:45:28.370Z,7.72
2022-10-04T08:48:24.412Z,6.93
2022-10-04T08:51:09.409Z,7.38
2022-10-04T08:53:35.674Z,7.65
2022-10-04T08:56:17.617Z,6.95
2022-10-04T08:58:49.725Z,7.13
2022-10-04T09:01:34.827Z,7.38
2022-10-04T09:04:07.127Z,5.63
2022-10-04T09:06:38.218Z,5.55
2022-10-04T09:09:10.412Z,7.30
2022-10-04T09:11:51.029Z,5.55
2022-10-04T09:14:31.271Z,6.57
2022-10-04T09:17:22.017Z,6.93
2022-10-04T09:19:48.486Z,3.70
2022-10-04T09:22:19.909Z,7.72
2022-10-04T09:24:59.197Z,6.93
2022-10-04T09:27:58.599Z,5.85
2022-10-04T09:30:34.151Z,5.43
2022-10-04T09:33:06.444Z,7.00
2022-10-04T09:35:55.376Z,9.52
2022-10-04T09:38:40.682Z,6.53
2022-10-04T09:41:13.016Z,7.80
2022-10-04T09:43:58.941Z,7.10
2022-10-04T09:46:54.511Z,6.95
2022-10-04T09:49:36.843Z,6.00
2022-10-04T09:52:18.243Z,5.03
2022-10-04T09:54:45.717Z,6.32
2022-10-04T09:57:14.983Z,6.30
2022-10-04T09:59:53.913Z,5.85
2022-10-04T10:02:39.360Z,6.30
2022-10-04T10:05:05.840Z,5.97
2022-10-04T10:07:35.197Z,4.72
2022-10-04T10:10:29.207Z,5.35
2022-10-04T10:13:17.300Z,4.80
2022-10-04T10:16:03.906Z,5.13
2022-10-04T10:18:33.086Z,5.70
2022-10-04T10:21:10.248Z,5.70
2022-10-04T10:23:39.327Z,5.40
2022-10-04T10:26:17.233Z,5.20
2022-10-04T10:28:46.328Z,5.15
2022-10-04T10:31:15.477Z,4.63
2022-10-04T10:34:00.717Z,5.25
2022-10-04T10:36:32.182Z,3.67
2022-10-04T10:39:06.516Z,4.65
2022-10-04T10:42:03.512Z,5.65
2022-10-04T10:44:48.915Z,5.22
2022-10-04T10:47:29.432Z,5.10
2022-10-04T10:50:07.981Z,5.00
2022-10-04T10:52:54.598Z,3.92
2022-10-04T10:55:29.436Z,2.97
2022-10-04T10:58:07.604Z,3.97
2022-10-04T11:00:52.730Z,3.42
2022-10-04T11:03:26.380Z,4.00
2022-10-04T11:06:07.615Z,3.97
2022-10-04T11:08:55.440Z,5.32
2022-10-04T11:11:30.528Z,4.47
2022-10-04T11:14:11.784Z,6.43
2022-10-04T11:16:38.085Z,6.03
2022-10-04T11:19:04.349Z,4.05
2022-10-04T11:21:43.155Z,5.57
2022-10-04T11:24:14.101Z,5.15
2022-10-04T11:26:46.597Z,4.85
2022-10-04T11:29:21.121Z,3.92
2022-10-04T11:32:00.997Z,5.88
2022-10-04T11:34:27.309Z,6.53
2022-10-04T11:37:05.845Z,6.90
2022-10-04T11:39:35.002Z,6.00
2022-10-04T11:42:05.645Z,6.55
2022-10-04T11:44:52.399Z,7.10
2022-10-04T11:47:26.341Z,6.38
2022-10-04T11:50:11.542Z,7.35
2022-10-04T11:52:37.974Z,7.00
2022-10-04T11:55:35.132Z,7.05
2022-10-04T11:58:21.675Z,6.43
2022-10-04T12:00:58.573Z,5.13
2022-10-04T12:03:49.398Z,6.13
2022-10-04T12:06:18.797Z,6.28
2022-10-04T12:09:05.694Z,5.95
2022-10-04T12:12:05.256Z,4.00
2022-10-04T12:14:34.597Z,5.90
2022-10-04T12:17:20.179Z,6.65
2022-10-04T12:20:09.867Z,6.53
2022-10-04T12:22:44.792Z,5.97
2022-10-04T12:25:29.377Z,6.18
2022-10-04T12:28:14.380Z,6.50
2022-10-04T12:30:49.845Z,6.32
2022-10-04T12:33:25.394Z,6.80
2022-10-04T12:35:58.381Z,6.13
2022-10-04T12:38:33.624Z,6.13
2022-10-04T12:41:05.745Z,6.45
2022-10-04T12:43:51.087Z,5.05
2022-10-04T12:46:38.744Z,4.70
2022-10-04T12:49:10.904Z,5.13
2022-10-04T12:51:37.846Z,5.80
2022-10-04T12:54:07.297Z,5.75
2022-10-04T12:56:39.604Z,4.97
2022-10-04T12:59:11.690Z,4.50
2022-10-04T13:01:56.654Z,5.30
2022-10-04T13:04:29.509Z,5.38
2022-10-04T13:06:55.854Z,5.22
2022-10-04T13:09:42.401Z,5.78
2022-10-04T13:12:27.136Z,5.55
2022-10-04T13:15:11.450Z,5.82
2022-10-04T13:17:49.999Z,5.10
2022-10-04T13:20:26.287Z,5.10
2022-10-04T13:23:07.953Z,4.43
2022-10-04T13:25:40.383Z,4.38
2022-10-04T13:28:16.668Z,4.72
2022-10-04T13:30:42.992Z,4.68
2022-10-04T13:33:18.358Z,4.05
2022-10-04T13:35:59.696Z,5.00
2022-10-04T13:38:40.959Z,4.70
2022-10-04T13:41:13.333Z,4.60
2022-10-04T13:43:58.017Z,5.13
2022-10-04T13:46:32.425Z,3.72
2022-10-04T13:49:14.946Z,4.28
2022-10-04T13:52:14.136Z,4.47
2022-10-04T13:55:11.928Z,5.28
2022-10-04T13:57:46.191Z,4.30
2022-10-04T14:00:15.137Z,4.72
2022-10-04T14:02:59.899Z,4.50
2022-10-04T14:05:38.414Z,4.63
2022-10-04T14:08:07.696Z,4.70
2022-10-04T14:10:43.165Z,3.90
2022-10-04T14:13:48.037Z,5.03
2022-10-04T14:16:34.526Z,5.10
2022-10-04T14:19:29.528Z,3.88
2022-10-04T14:22:14.188Z,4.80
2022-10-04T14:24:40.533Z,3.88
2022-10-04T14:27:12.404Z,4.07
2022-10-04T14:29:54.661Z,4.40
2022-10-04T14:32:36.764Z,4.20
2022-10-04T14:35:03.256Z,4.88
2022-10-04T14:37:47.429Z,4.55
2022-10-04T14:40:32.486Z,4.43
2022-10-04T14:43:17.260Z,4.35
2022-10-04T14:45:57.611Z,4.15
2022-10-04T14:48:39.195Z,4.50
2022-10-04T14:51:16.589Z,4.85
2022-10-04T14:53:51.816Z,4.85
2022-10-04T14:56:18.177Z,4.95
2022-10-04T14:58:47.242Z,4.93
2022-10-04T15:01:21.004Z,5.03
2022-10-04T15:03:47.468Z,5.60
2022-10-04T15:06:26.289Z,5.53
2022-10-04T15:08:59.034Z,5.00
2022-10-04T15:11:44.321Z,5.50
2022-10-04T15:14:35.621Z,5.03
2022-10-04T15:17:04.472Z,4.97
2022-10-04T15:19:54.154Z,5.07
2022-10-04T15:22:39.112Z,4.90
2022-10-04T15:25:25.356Z,4.25
2022-10-04T15:30:30.571Z,5.32
2022-10-04T15:33:15.689Z,5.07
2022-10-04T15:36:09.660Z,4.68
2022-10-04T15:38:38.795Z,4.90
2022-10-04T15:41:18.552Z,4.80
2022-10-04T15:44:05.865Z,5.63
2022-10-04T15:46:45.677Z,4.95
2022-10-04T15:49:27.418Z,4.40
2022-10-04T15:52:05.769Z,4.88
2022-10-04T15:54:52.145Z,5.97
2022-10-04T15:57:19.408Z,5.18
2022-10-04T15:59:53.543Z,4.88
2022-10-04T16:02:24.900Z,5.03
2022-10-04T16:05:13.369Z,4.85
2022-10-04T16:07:46.208Z,5.30
2022-10-04T16:10:19.208Z,5.20
2022-10-04T16:13:05.065Z,4.65
2022-10-04T16:15:32.762Z,5.40
2022-10-04T16:17:59.085Z,5.60
2022-10-04T16:20:43.953Z,5.00
2022-10-04T16:23:28.003Z,5.05
2022-10-04T16:25:55.745Z,5.03
2022-10-04T16:28:25.042Z,5.60
2022-10-04T16:31:00.995Z,5.53
2022-10-04T16:33:34.910Z,5.50
2022-10-04T16:36:10.087Z,5.55
2022-10-04T16:39:03.566Z,5.03
2022-10-04T16:41:50.191Z,5.28
2022-10-04T16:44:28.770Z,4.80
2022-10-04T16:46:56.342Z,4.50
2022-10-04T16:49:30.980Z,3.60
2022-10-04T16:52:05.933Z,4.68
2022-10-04T16:54:58.017Z,3.70
2022-10-04T16:57:27.560Z,4.88
2022-10-04T16:59:55.016Z,4.28
2022-10-04T17:02:39.838Z,4.10
2022-10-04T17:05:18.265Z,4.50
2022-10-04T17:07:50.330Z,4.20
2022-10-04T17:10:18.851Z,3.80
2022-10-04T17:12:46.696Z,4.20
2022-10-04T17:15:27.422Z,4.13
2022-10-04T17:18:12.726Z,3.67
2022-10-04T17:20:41.908Z,3.83
2022-10-04T17:23:14.007Z,3.63
2022-10-04T17:25:40.315Z,3.35
2022-10-04T17:28:09.868Z,3.33
2022-10-04T17:30:48.979Z,3.03
2022-10-04T17:33:21.829Z,3.88
2022-10-04T17:36:00.125Z,3.78
2022-10-04T17:38:35.471Z,3.78
2022-10-04T17:41:04.572Z,3.70
2022-10-04T17:43:30.824Z,3.30
2022-10-04T17:46:03.084Z,3.50
2022-10-04T17:48:57.418Z,4.30
2022-10-04T17:51:42.486Z,4.10
2022-10-04T17:54:33.356Z,4.18
2022-10-04T17:57:21.862Z,3.90
2022-10-04T18:00:09.209Z,3.35
2022-10-04T18:02:54.533Z,3.85
2022-10-04T18:05:23.180Z,3.77
2022-10-04T18:07:55.044Z,3.90
2022-10-04T18:10:33.260Z,3.88
2022-10-04T18:13:03.504Z,3.42
2022-10-04T18:15:35.909Z,3.47
2022-10-04T18:18:28.321Z,3.40
2022-10-04T18:20:54.825Z,2.80
2022-10-04T18:23:27.160Z,2.20
2022-10-04T18:26:05.027Z,2.65
2022-10-04T18:28:34.608Z,2.00
2022-10-04T18:31:14.041Z,2.25
2022-10-04T18:33:40.356Z,2.50
2022-10-04T18:36:28.122Z,2.22
2022-10-04T18:39:16.497Z,1.50
2022-10-04T18:41:52.590Z,1.77
2022-10-04T18:44:24.057Z,1.83
2022-10-04T18:46:55.361Z,1.85
2022-10-04T18:49:25.399Z,1.48
2022-10-04T18:51:51.665Z,1.33
2022-10-04T18:54:30.767Z,1.38
2022-10-04T18:57:05.530Z,1.85
2022-10-04T19:00:09.093Z,1.40
2022-10-04T19:02:55.896Z,1.30
2022-10-04T19:05:34.107Z,1.00
2022-10-04T19:08:06.526Z,1.40
2022-10-04T19:10:44.273Z,1.35
2022-10-04T19:13:16.766Z,0.98
2022-10-04T19:16:03.798Z,1.15
2022-10-04T19:18:50.376Z,1.27
2022-10-04T19:21:25.124Z,1.27
2022-10-04T19:24:11.394Z,1.05
2022-10-04T19:26:41.648Z,1.23
2022-10-04T19:29:19.109Z,0.93
2022-10-04T19:31:54.707Z,1.48
2022-10-04T19:34:28.706Z,1.17
2022-10-04T19:37:09.149Z,1.30
2022-10-04T19:39:41.720Z,1.00
2022-10-04T19:42:11.222Z,1.35
2022-10-04T19:44:44.738Z,1.30
2022-10-04T19:47:35.088Z,1.08
2022-10-04T19:50:07.351Z,1.23
2022-10-04T19:52:40.145Z,0.90
2022-10-04T19:55:12.340Z,1.10
2022-10-04T19:57:39.226Z,1.13
2022-10-04T20:00:16.797Z,1.20
2022-10-04T20:02:48.394Z,0.80
2022-10-04T20:05:24.778Z,1.10
2022-10-04T20:07:52.961Z,0.98
2022-10-04T20:10:30.475Z,1.23
2022-10-04T20:13:06.469Z,0.80
2022-10-04T20:15:34.835Z,0.63
2022-10-04T20:18:04.038Z,0.70
2022-10-04T20:20:42.925Z,0.60
2022-10-04T20:23:09.755Z,0.80
2022-10-04T20:25:45.615Z,0.60
2022-10-04T20:28:27.219Z,0.52
2022-10-04T20:30:54.633Z,0.98
2022-10-04T20:33:33.056Z,1.00
2022-10-04T20:36:14.148Z,0.70
2022-10-04T20:38:49.576Z,0.73
2022-10-04T20:41:27.839Z,0.60
2022-10-04T20:44:04.109Z,0.73
2022-10-04T20:46:40.213Z,0.80
2022-10-04T20:49:15.644Z,0.80
2022-10-04T20:51:48.810Z,0.80
2022-10-04T20:54:18.677Z,0.68
2022-10-04T20:56:48.593Z,0.98
2022-10-04T20:59:18.630Z,0.70
2022-10-04T21:02:05.830Z,0.60
2022-10-04T21:04:33.207Z,0.60
2022-10-04T21:07:05.701Z,0.88
2022-10-04T21:09:32.677Z,0.85
2022-10-04T21:11:59.989Z,1.10
2022-10-04T21:14:27.513Z,1.02
2022-10-04T21:16:58.702Z,0.93
2022-10-04T21:19:38.886Z,1.30
2022-10-04T21:22:09.380Z,1.38
2022-10-04T21:24:38.466Z,0.98
2022-10-04T21:27:05.900Z,0.90
2022-10-04T21:29:32.277Z,1.00
2022-10-04T21:31:58.970Z,1.00
2022-10-04T21:34:51.330Z,0.85
2022-10-04T21:37:11.874Z,0.73
2022-10-04T21:39:38.473Z,0.85
2022-10-04T21:42:05.049Z,0.90
2022-10-04T21:44:31.476Z,1.15
2022-10-04T21:46:58.104Z,0.77
2022-10-04T21:49:24.533Z,0.70
2022-10-04T21:51:51.105Z,0.73
2022-10-04T21:54:17.516Z,0.90
2022-10-04T21:56:44.143Z,1.55
2022-10-04T21:59:10.639Z,0.57
2022-10-04T22:01:36.960Z,0.98
2022-10-04T22:04:03.508Z,0.82
2022-10-04T22:06:29.911Z,0.90
2022-10-04T22:08:56.236Z,1.00
2022-10-04T22:11:22.532Z,1.08
2022-10-04T22:13:48.998Z,1.30
2022-10-04T22:16:15.560Z,0.82
2022-10-04T22:18:41.929Z,0.90
2022-10-04T22:21:08.215Z,1.00
2022-10-04T22:23:39.015Z,1.23
2022-10-04T22:26:12.125Z,1.17
2022-10-04T22:28:41.546Z,1.20
2022-10-04T22:31:15.203Z,0.93
2022-10-04T22:33:42.676Z,0.88
2022-10-04T22:36:15.023Z,0.90
2022-10-04T22:38:53.326Z,1.00
2022-10-04T22:41:19.696Z,0.90
2022-10-04T22:43:46.749Z,1.02
2022-10-04T22:46:14.958Z,0.80
2022-10-04T22:48:41.846Z,1.00
2022-10-04T22:51:10.148Z,0.90
2022-10-04T22:53:36.515Z,1.02
2022-10-04T22:56:02.844Z,1.05
2022-10-04T22:58:29.178Z,1.00
2022-10-04T23:00:55.560Z,0.80
2022-10-04T23:03:28.994Z,0.77
2022-10-04T23:05:55.300Z,0.73
2022-10-04T23:08:21.715Z,0.50
2022-10-04T23:10:48.479Z,0.68
2022-10-04T23:13:14.757Z,0.80
2022-10-04T23:15:41.924Z,0.85
2022-10-04T23:18:17.761Z,0.60
2022-10-04T23:20:44.618Z,0.80
2022-10-04T23:23:11.866Z,0.70
2022-10-04T23:25:39.840Z,0.75
2022-10-04T23:28:12.131Z,0.70
2022-10-04T23:30:38.543Z,0.90
2022-10-04T23:33:10.748Z,0.68
2022-10-04T23:35:37.068Z,0.82
2022-10-04T23:38:07.272Z,0.80
2022-10-04T23:40:33.701Z,0.68
2022-10-04T23:43:01.250Z,0.93
2022-10-04T23:45:27.624Z,0.65
2022-10-04T23:47:55.349Z,0.63
2022-10-04T23:50:24.117Z,0.70
2022-10-04T23:52:51.768Z,0.75
2022-10-04T23:55:20.533Z,0.82
2022-10-04T23:57:46.917Z,0.85
